Pratt, Minnesota
Current Conditions -  °F | °C
As of 3:15 AM on Sunday 21 Dec 2014 (Local Time) from KOWA Reporting Station
Haze Haze  
Wind Chill: 26°   Ceiling: 600
Heat Index: 34°   Visibility: 4mi
Dew Point: 30°   Wind: 9mph
Humidity: 87%   Direction: 150°SSE
Pressure: 29.99"   Gusts: NA
Location:  44.0575°N, 93.2082°W
Report Text: KOWA 210915Z AUTO 15008KT 4SM BR OVC006 01/M01 A2999 RMK AO2
Loading
Personal Weather Stations






























Interactive Weather Map New forecast layout! Learn more

10-Day Weather Forecast

Advertisements
Track Severe Weather on mobile